Latest Coastal Weather Observations for Kowanyama

IDQ60701

Issued at 8:32 pm EST Saturday 21 October 2017 (issued every 10 minutes, with the page automatically refreshed every 10 minutes)

About coastal observations | Map of coastal stations | Coastal observations for QLD | Marine services | Other Formats
Station Details ID: 029038 Name: KOWANYAMA AIRPORT Lat: -15.48 Lon: 141.75 Height: 9.6 m
Data from the previous 72 hours. | See also: Recent months at Kowanyama
Date/Time
EST
Temp
°C
Wind Pressure Rain since
9am
mm
Weather Cloud Vis
km
Sea
Height
m
Swell
Dir  Spd
kts
Gust
kts
hPa Trend Height
m
Period
s
Dir
21/08:30pm 26.4 SSW 3 4 1011.0 - 5.4 - - - - - - -
21/08:00pm 26.6 WSW 3 4 1010.7 - 5.4 - - - - - - -
21/07:30pm 27.0 W 4 5 1010.5 - 5.4 - - - - - - -
21/07:00pm 27.2 WSW 6 8 1010.2 - 5.4 - - - - - - -
21/06:30pm 27.7 WSW 6 8 1009.9 - 5.4 - - - - - - -
21/06:00pm 28.3 SW 10 13 1009.6 - 5.4 - - - - - - -
21/05:30pm 28.9 W 10 14 1009.2 - 5.4 - - - - - - -
21/05:00pm 29.8 W 9 13 1009.0 - 5.4 - - - - - - -
21/04:30pm 30.1 WNW 10 13 1008.7 - 5.4 - - - - - - -
21/04:00pm 31.2 W 8 11 1008.6 - 5.4 - - - - - - -
21/03:30pm 30.9 NE 3 4 1008.9 - 5.4 - - - - - - -
21/03:00pm 30.2 NW 3 5 1009.2 - 5.4 - - - - - - -
21/02:30pm 29.3 S 2 4 1009.8 - 5.4 - - - - - - -
21/02:00pm 27.5 SE 5 6 1010.2 - 5.4 - - - - - - -
21/01:30pm 25.3 SW 7 11 1011.1 - 4.8 - - - - - - -
21/01:15pm 26.5 WSW 11 15 1011.2 - 0.0 - - - - - - -
21/01:00pm 31.5 WNW 6 10 1011.1 - 0.0 - - - - - - -
21/12:30pm 29.6 NNW 7 10 1011.8 - 0.0 - - - - - - -
21/12:00pm 28.6 NW 8 13 1012.2 - 0.0 - - - - - - -
21/11:30am 31.3 W 3 5 1012.7 - 0.0 - - - - - - -
21/11:00am 29.9 E 4 7 1013.1 - 0.0 - - - - - - -
21/10:30am 29.1 NE 6 9 1013.5 - 0.0 - - - - - - -
21/10:00am 28.6 E 5 8 1013.8 - 0.0 - - - - - - -
21/09:30am 27.9 ENE 6 9 1013.8 - 0.0 - - - - - - -
21/09:00am 27.0 NE 7 11 1013.8 - 8.0 - - - - - - -
21/08:30am 26.0 ENE 5 8 1013.8 - 8.0 - - - - - - -
21/08:00am 25.6 E 4 6 1013.8 - 8.0 - - - - - - -
21/07:30am 25.2 ENE 2 4 1013.6 - 8.0 - - - - - - -
21/07:00am 25.0 E 4 5 1013.1 - 8.0 - - - - - - -
21/06:30am 24.8 ESE 3 3 1012.8 - 8.0 - - - - - - -
21/06:00am 24.7 CALM 0 3 1012.5 - 8.0 - - - - - - -
21/05:30am 24.8 CALM 0 0 1012.2 - 8.0 - - - - - - -
21/05:00am 24.7 ENE 1 3 1012.0 - 8.0 - - - - - - -
21/04:30am 24.8 E 4 5 1011.8 - 8.0 - - - - - - -
21/04:00am 24.8 CALM 0 0 1011.8 - 8.0 - - - - - - -
21/03:30am 24.8 CALM 0 0 1012.0 - 8.0 - - - - - - -
21/03:00am 24.9 CALM 0 0 1012.0 - 8.0 - - - - - - -
21/02:30am 25.2 CALM 0 0 1012.2 - 8.0 - - - - - - -
21/02:00am 25.1 CALM 0 0 1012.6 - 8.0 - - - - - - -
21/01:30am 25.0 CALM 0 0 1012.8 - 8.0 - - - - - - -
21/01:00am 24.9 SW 2 3 1013.0 - 8.0 - - - - - - -
21/12:30am 25.1 NW 3 3 1013.0 - 8.0 - - - - - - -
21/12:00am 25.3 NNW 3 5 1013.4 - 8.0 - - - - - - -
 
Date/Time
EST
Temp
°C
Wind Pressure Rain since
9am
mm
Weather Cloud Vis
km
Sea
Height
m
Swell
Dir  Spd
kts
Gust
kts
hPa Trend Height
m
Period
s
Dir
20/11:30pm 25.3 N 3 4 1013.8 - 8.0 - - - - - - -
20/11:00pm 25.5 CALM 0 0 1013.7 - 8.0 - - - - - - -
20/10:30pm 25.5 CALM 0 0 1013.9 - 7.8 - - - - - - -
20/10:00pm 25.2 NNW 1 3 1014.0 - 7.8 - - - - - - -
20/09:30pm 25.1 WNW 4 5 1013.8 - 7.8 - - - - - - -
20/09:00pm 25.0 W 5 6 1013.6 - 7.8 - - - - - - -
20/08:30pm 25.2 NW 5 8 1013.1 - 7.8 - - - - - - -
20/08:00pm 25.4 WNW 7 10 1012.8 - 7.8 - - - - - - -
20/07:30pm 25.2 NW 8 11 1012.3 - 6.4 - - - - - - -
20/07:00pm 29.9 W 5 10 1011.5 - 0.2 - - - - - - -
20/06:30pm 30.9 W 7 9 1010.7 - 0.2 - - - - - - -
20/06:00pm 32.7 ENE 5 9 1010.1 - 0.2 - - - - - - -
20/05:30pm 33.5 NE 8 12 1009.6 - 0.2 - - - - - - -
20/05:00pm 34.3 E 5 10 1009.5 - 0.2 - - - - - - -
20/04:30pm 34.4 E 7 11 1009.4 - 0.2 - - - - - - -
20/04:00pm 34.4 ENE 8 13 1009.6 - 0.2 - - - - - - -
20/03:30pm 34.7 ESE 8 13 1009.8 - 0.2 - - - - - - -
20/03:00pm 34.2 ENE 8 13 1010.2 - 0.2 - - - - - - -
20/02:30pm 33.6 E 9 12 1010.7 - 0.2 - - - - - - -
20/02:00pm 33.6 ENE 8 13 1011.3 - 0.2 - - - - - - -
20/01:30pm 33.9 ENE 7 10 1011.6 - 0.2 - - 10 - - - -
20/01:00pm 32.7 ENE 7 12 1012.3 - 0.2 - - 10 - - - -
20/12:30pm 32.5 E 7 13 1012.9 - 0.2 - - 10 - - - -
20/12:00pm 31.0 E 7 15 1013.4 - 0.2 - - 10 - - - -
20/11:30am 31.7 ENE 7 13 1013.7 - 0.2 - - 10 - - - -
20/11:00am 29.8 E 8 11 1014.0 - 0.2 - - 10 - - - -
20/10:30am 29.1 E 9 13 1014.3 - 0.2 - - 10 - - - -
20/10:00am 29.2 ENE 9 13 1014.4 - 0.2 - - 10 - - - -
20/09:30am 28.6 E 8 15 1014.4 - 0.0 - - 10 - - - -
20/09:00am 27.7 E 7 11 1014.2 - 9.6 - - 10 - - - -
20/08:30am 27.4 ESE 9 14 1014.1 - 9.6 - - 10 - - - -
20/08:00am 26.4 ESE 7 9 1013.8 - 9.6 - - 10 - - - -
20/07:30am 25.6 ESE 7 10 1013.6 - 9.6 - - 10 - - - -
20/07:00am 24.6 SE 6 8 1013.4 - 9.6 - - - - - - -
20/06:30am 23.7 ESE 4 5 1013.1 - 9.6 - - - - - - -
20/06:00am 23.4 SSE 4 5 1012.7 - 9.6 - - - - - - -
20/05:30am 23.7 ESE 4 5 1012.3 - 9.6 - - - - - - -
20/05:00am 23.9 SE 4 5 1011.9 - 9.6 - - - - - - -
20/04:30am 24.0 ESE 4 5 1011.7 - 9.6 - - - - - - -
20/04:00am 24.2 E 4 5 1011.7 - 9.6 - - - - - - -
20/03:30am 24.0 E 5 9 1011.6 - 9.6 - - - - - - -
20/03:00am 23.8 E 4 6 1011.3 - 9.6 - - - - - - -
20/02:30am 23.7 E 3 5 1011.5 - 9.6 - - - - - - -
20/02:00am 23.9 E 4 5 1011.5 - 9.6 - - - - - - -
20/01:30am 24.2 ENE 3 5 1011.8 - 9.6 - - - - - - -
20/01:00am 24.4 E 5 8 1012.2 - 9.6 - - - - - - -
20/12:30am 24.4 E 5 8 1012.5 - 9.6 - - - - - - -
20/12:00am 24.3 ENE 3 5 1012.9 - 9.6 - - - - - - -
 
Date/Time
EST
Temp
°C
Wind Pressure Rain since
9am
mm
Weather Cloud Vis
km
Sea
Height
m
Swell
Dir  Spd
kts
Gust
kts
hPa Trend Height
m
Period
s
Dir
19/11:30pm 24.3 NE 2 4 1013.1 - 9.6 - - - - - - -
19/11:00pm 24.0 ENE 2 4 1013.4 - 9.6 - - - - - - -
19/10:30pm 23.8 N 3 5 1013.6 - 9.6 - - - - - - -
19/10:00pm 23.7 NE 5 8 1013.5 - 9.6 - - - - - - -
19/09:30pm 23.5 E 5 9 1012.9 - 9.4 - - - - - - -
19/09:00pm 23.4 NE 7 10 1012.2 - 2.6 Recent precip. Cloudy - - - - -
19/08:30pm 23.6 E 9 16 1012.1 - 1.6 - Partly cloudy - - - - -
19/08:00pm 27.1 E 8 16 1011.4 - 0.0 - Partly cloudy - - - - -
19/07:30pm 28.6 SSE 7 9 1010.6 - 0.0 - Partly cloudy - - - - -
19/07:00pm 28.4 WSW 9 14 1008.9 - 0.0 - Partly cloudy - - - - -
19/06:30pm 29.0 WSW 9 11 1008.7 - 0.0 - - - - - - -
19/06:00pm 30.1 SW 11 15 1008.2 - 0.0 - - - - - - -
19/05:30pm 31.3 WSW 10 17 1007.8 - 0.0 - - - - - - -
19/05:00pm 32.3 WSW 12 17 1007.4 - 0.0 - Partly cloudy - - - - -
19/04:30pm 33.8 WSW 10 15 1007.1 - 0.0 - - - - - - -
19/04:00pm 34.5 W 10 13 1007.2 - 0.0 - Cloudy - - - - -
19/03:30pm 35.1 E 6 13 1007.3 - 0.0 - Cloudy - - - - -
19/03:00pm 35.6 E 6 12 1007.3 - 0.0 - Partly cloudy - - - - -
19/02:30pm 35.5 S 6 14 1007.7 - 0.0 - Partly cloudy - - - - -
19/02:00pm 35.9 ESE 7 12 1008.2 - 0.0 - Partly cloudy - - - - -
19/01:30pm 34.8 ESE 6 8 1008.8 - 0.0 - Partly cloudy - - - - -
19/01:00pm 35.6 ENE 7 12 1009.3 - 0.0 - Partly cloudy - - - - -
19/12:30pm 34.3 ESE 7 12 1009.8 - 0.0 - Partly cloudy - - - - -
19/12:00pm 34.4 ENE 6 11 1010.1 - 0.0 - - - - - - -
19/11:30am 33.1 ENE 5 10 1010.5 - 0.0 - Partly cloudy - - - - -
19/11:00am 31.8 NE 7 12 1010.7 - 0.0 - - - - - - -
19/10:30am 31.3 NNE 5 10 1011.1 - 0.0 - Partly cloudy - - - - -
19/10:00am 30.0 ENE 7 10 1011.5 - 0.0 - Partly cloudy - - - - -
19/09:30am 29.2 ENE 8 12 1011.7 - 0.0 - - - - - - -
19/09:00am 29.0 E 7 11 1011.7 - 0.0 - - - - - - -
19/08:30am 28.0 NE 8 12 1011.8 - 0.0 - - - - - - -
19/08:00am 26.6 NE 7 11 1011.7 - 0.0 - - - - - - -
19/07:30am 25.8 ENE 5 8 1011.2 - 0.0 - - - - - - -
19/07:00am 24.7 NE 4 6 1010.9 - 0.0 - - - - - - -
19/06:30am 23.7 NE 3 5 1010.6 - 0.0 - - - - - - -
19/06:00am 23.6 E 4 6 1010.4 - 0.0 - - - - - - -
19/05:30am 23.8 E 4 5 1009.8 - 0.0 - - - - - - -
19/05:00am 24.0 NE 4 6 1009.2 - 0.0 - - - - - - -
19/04:30am 24.3 NE 4 7 1008.9 - 0.0 - - - - - - -
19/04:00am 24.6 NE 5 8 1008.6 - 0.0 - - - - - - -
19/03:30am 24.8 NE 5 10 1008.7 - 0.0 - - - - - - -
19/03:00am 24.9 ENE 5 8 1008.9 - 0.0 - - - - - - -
19/02:30am 25.1 ENE 5 8 1009.2 - 0.0 - - - - - - -
19/02:00am 25.2 E 5 9 1009.3 - 0.0 - - - - - - -
19/01:30am 25.3 ESE 5 6 1009.7 - 0.0 - - - - - - -
19/01:00am 25.7 ESE 5 10 1010.0 - 0.0 - Partly cloudy - - - - -
19/12:30am 24.1 SSW 3 3 1009.4 - 0.0 - - - - - - -
19/12:00am 24.5 SSW 2 4 1009.8 - 0.0 - - - - - - -
 
Date/Time
EST
Temp
°C
Wind Pressure Rain since
9am
mm
Weather Cloud Vis
km
Sea
Height
m
Swell
Dir  Spd
kts
Gust
kts
hPa Trend Height
m
Period
s
Dir
18/11:30pm 24.9 SSW 3 4 1010.0 - 0.0 - - - - - - -
18/11:00pm 25.1 SSW 3 5 1010.1 - 0.0 - - - - - - -
18/10:30pm 25.2 SSW 3 5 1010.3 - 0.0 - - - - - - -
18/10:00pm 25.4 CALM 0 0 1010.0 - 0.0 - - - - - - -
18/09:30pm 26.0 SW 3 4 1009.6 - 0.0 - - - - - - -
18/09:00pm 26.4 SW 4 6 1009.2 - 0.0 - - - - - - -

Other Formats:

Comma delimited format used in spreadsheet applications
http://www.bom.gov.au/fwo/IDQ60701/IDQ60701.94268.axf

JavaScript Object Notation format (JSON) in row-major order
http://www.bom.gov.au/fwo/IDQ60701/IDQ60701.94268.json